Time;durP1;ratioP1;P1;durP2;ratioP2;P2;SDS_P1;SDS_P2;PMS_P1;PMS_P2;Temp;Humidity;BMP_temperature;BMP_pressure;BME280_temperature;BME280_humidity;BME280_pressure;Samples;Min_cycle;Max_cycle;Signal;HPM_P1;HPM_P2
2022/05/15 00:06:23;;;;;;;6.17;5.67;;;13.80;99.90;;;;;;5028014;28;20543;-85
2022/05/15 00:09:03;;;;;;;6.17;5.70;;;13.80;99.90;;;;;;5039899;28;20464;-86
2022/05/15 00:11:42;;;;;;;6.57;6.07;;;13.90;99.90;;;;;;5040009;28;20861;-86
2022/05/15 00:14:29;;;;;;;6.37;5.70;;;13.90;99.90;;;;;;5040951;28;20507;-86
2022/05/15 00:17:30;;;;;;;6.30;5.70;;;13.90;99.90;;;;;;5040869;28;20499;-86
2022/05/15 00:20:32;;;;;;;7.57;6.93;;;13.90;99.90;;;;;;5038376;28;20453;-86
2022/05/15 00:23:26;;;;;;;6.67;6.13;;;13.80;99.90;;;;;;5040818;28;20467;-86
2022/05/15 00:26:08;;;;;;;7.40;6.70;;;13.80;99.90;;;;;;5039630;28;20488;-86
2022/05/15 00:28:58;;;;;;;6.10;5.67;;;13.80;99.90;;;;;;5040153;28;20751;-86
2022/05/15 00:31:49;;;;;;;7.87;6.50;;;13.80;99.90;;;;;;5039653;28;20449;-86
2022/05/15 00:34:24;;;;;;;7.90;7.10;;;13.80;99.90;;;;;;5039753;28;20485;-86
2022/05/15 00:40:29;;;;;;;8.67;7.80;;;13.70;99.90;;;;;;5037000;28;20441;-86
2022/05/15 00:43:43;;;;;;;6.50;5.90;;;13.70;99.90;;;;;;5039587;28;20560;-86
2022/05/15 00:46:33;;;;;;;5.70;5.20;;;13.70;99.90;;;;;;5012971;28;20480;-86
2022/05/15 00:49:22;;;;;;;6.57;6.07;;;13.70;99.90;;;;;;5041164;28;20839;-86
2022/05/15 00:55:30;;;;;;;6.53;5.83;;;13.50;99.90;;;;;;4990824;28;20807;-86
2022/05/15 00:58:10;;;;;;;6.53;5.80;;;13.50;99.90;;;;;;4997484;28;20926;-86
2022/05/15 01:00:39;;;;;;;4.77;4.30;;;13.50;99.90;;;;;;5001875;28;20461;-85
2022/05/15 01:03:08;;;;;;;4.70;4.40;;;13.50;99.90;;;;;;5039157;28;20487;-86
2022/05/15 01:05:37;;;;;;;5.27;4.77;;;13.40;99.90;;;;;;5038671;28;21010;-86
2022/05/15 01:08:04;;;;;;;5.30;4.60;;;13.30;99.90;;;;;;5038773;28;20457;-86
2022/05/15 01:10:34;;;;;;;4.13;3.83;;;13.40;99.90;;;;;;5038262;28;20881;-85
2022/05/15 01:13:01;;;;;;;4.90;4.53;;;13.30;99.90;;;;;;5038410;28;20477;-86
2022/05/15 01:15:29;;;;;;;3.97;3.67;;;13.30;99.90;;;;;;5038856;28;20540;-86
2022/05/15 01:17:56;;;;;;;4.83;4.40;;;13.30;99.90;;;;;;5039218;28;20450;-86
2022/05/15 01:20:27;;;;;;;4.57;4.17;;;13.20;99.90;;;;;;5038001;28;20452;-86
2022/05/15 01:22:56;;;;;;;5.20;4.70;;;13.20;99.90;;;;;;5039023;28;21057;-86
2022/05/15 01:25:26;;;;;;;5.00;4.60;;;13.20;99.90;;;;;;5038481;28;20459;-86
2022/05/15 01:27:55;;;;;;;4.50;3.97;;;13.20;99.90;;;;;;5039084;28;20443;-85
2022/05/15 01:30:22;;;;;;;7.53;4.30;;;13.20;99.90;;;;;;5039006;28;20446;-85
2022/05/15 01:32:51;;;;;;;4.27;3.97;;;13.20;99.90;;;;;;5038352;28;20471;-84
2022/05/15 01:35:18;;;;;;;4.93;4.40;;;13.20;99.90;;;;;;5038290;28;20931;-85
2022/05/15 01:37:45;;;;;;;6.63;4.40;;;13.20;99.90;;;;;;5039132;28;20483;-85
2022/05/15 01:40:15;;;;;;;6.67;4.80;;;13.10;99.90;;;;;;5038637;28;20464;-85
2022/05/15 01:42:42;;;;;;;4.97;4.57;;;13.10;99.90;;;;;;5038856;28;20479;-85
2022/05/15 01:45:10;;;;;;;10.27;4.97;;;13.10;99.90;;;;;;5037877;28;20796;-87
2022/05/15 01:47:37;;;;;;;5.40;4.50;;;13.10;99.90;;;;;;5037538;28;20491;-84
2022/05/15 01:50:05;;;;;;;4.70;4.30;;;13.00;99.90;;;;;;5038316;28;20416;-84
2022/05/15 01:52:32;;;;;;;4.33;4.03;;;13.10;99.90;;;;;;5038168;28;20461;-84
2022/05/15 01:54:58;;;;;;;4.53;4.03;;;13.00;99.90;;;;;;5038641;28;20453;-84
2022/05/15 01:57:27;;;;;;;4.90;4.17;;;13.10;99.90;;;;;;5038309;28;20452;-84
2022/05/15 01:59:54;;;;;;;4.60;4.30;;;13.00;99.90;;;;;;5037898;28;20567;-84
2022/05/15 02:02:21;;;;;;;4.20;3.80;;;13.00;99.90;;;;;;5037716;28;20461;-87
2022/05/15 02:04:49;;;;;;;4.70;4.30;;;13.00;99.90;;;;;;5038413;28;20495;-87
2022/05/15 02:07:15;;;;;;;4.23;3.93;;;12.90;99.90;;;;;;5038502;28;20542;-85
2022/05/15 02:09:42;;;;;;;6.73;6.03;;;12.90;99.90;;;;;;5037970;28;20819;-84
2022/05/15 02:12:10;;;;;;;5.93;4.57;;;12.80;99.90;;;;;;5038024;28;20440;-85
2022/05/15 02:14:38;;;;;;;4.43;4.13;;;12.80;99.90;;;;;;5038113;28;20460;-85
2022/05/15 02:17:05;;;;;;;5.17;4.77;;;12.80;99.90;;;;;;5038602;28;20460;-85
2022/05/15 02:19:32;;;;;;;4.43;4.10;;;12.70;99.90;;;;;;5038188;28;20454;-85
2022/05/15 02:21:59;;;;;;;6.50;5.17;;;12.60;99.90;;;;;;5037613;28;20459;-85
2022/05/15 02:24:26;;;;;;;6.03;4.30;;;12.70;99.90;;;;;;5039430;28;20526;-85
2022/05/15 02:26:53;;;;;;;5.47;3.93;;;12.70;99.90;;;;;;5042200;28;20487;-85
2022/05/15 02:29:20;;;;;;;4.50;4.20;;;12.60;99.90;;;;;;5043789;28;20462;-85
2022/05/15 02:31:48;;;;;;;4.53;4.23;;;12.60;99.90;;;;;;5039555;28;20445;-84
2022/05/15 02:34:15;;;;;;;4.73;4.33;;;12.60;99.90;;;;;;5038307;28;20477;-85
2022/05/15 02:36:42;;;;;;;5.80;4.57;;;12.60;99.90;;;;;;5037817;28;20449;-85
2022/05/15 02:39:09;;;;;;;5.77;4.40;;;12.50;99.90;;;;;;5038091;28;20452;-84
2022/05/15 02:41:36;;;;;;;5.20;4.40;;;12.60;99.90;;;;;;5037522;28;20449;-85
2022/05/15 02:44:03;;;;;;;5.50;4.90;;;12.50;99.90;;;;;;5143774;22;20501;-83
2022/05/15 02:46:30;;;;;;;4.83;4.53;;;12.50;99.90;;;;;;5042959;28;20491;-83
2022/05/15 02:51:42;;;;;;;5.57;5.17;;;12.50;99.90;;;;;;5042769;28;20453;-81
2022/05/15 02:54:09;;;;;;;5.87;5.03;;;12.40;99.90;;;;;;5042454;28;20475;-81
2022/05/15 02:56:37;;;;;;;5.10;4.60;;;12.40;99.90;;;;;;5042652;28;20502;-81
2022/05/15 02:59:05;;;;;;;4.90;4.40;;;12.40;99.90;;;;;;5042180;28;20453;-81
2022/05/15 03:01:33;;;;;;;5.40;4.90;;;12.40;99.90;;;;;;5042284;28;20447;-81
2022/05/15 03:04:01;;;;;;;5.00;4.50;;;12.40;99.90;;;;;;5042421;28;20476;-81
2022/05/15 03:06:28;;;;;;;4.63;4.23;;;12.40;99.90;;;;;;5042262;28;20454;-81
2022/05/15 03:08:55;;;;;;;5.10;4.70;;;12.40;99.90;;;;;;5041967;28;20723;-81
2022/05/15 03:11:22;;;;;;;5.50;5.10;;;12.40;99.90;;;;;;5041868;28;20456;-80
2022/05/15 03:13:49;;;;;;;4.80;4.40;;;12.40;99.90;;;;;;5042646;28;20477;-81
2022/05/15 03:16:18;;;;;;;4.73;4.53;;;12.40;99.90;;;;;;5042012;28;20487;-81
2022/05/15 03:18:50;;;;;;;5.40;4.90;;;12.40;99.90;;;;;;5041651;28;20551;-81
2022/05/15 03:21:29;;;;;;;5.47;5.00;;;12.30;99.90;;;;;;5041421;28;20459;-81
2022/05/15 03:23:57;;;;;;;8.03;4.37;;;12.30;99.90;;;;;;5042003;28;20479;-80
2022/05/15 03:26:24;;;;;;;4.63;4.33;;;12.30;99.90;;;;;;5041293;28;20449;-81
2022/05/15 03:28:51;;;;;;;5.40;4.80;;;12.30;99.90;;;;;;5041380;28;20456;-81
2022/05/15 03:31:17;;;;;;;5.43;4.93;;;12.20;99.90;;;;;;5041428;28;20460;-81
2022/05/15 03:33:45;;;;;;;4.70;4.30;;;12.20;99.90;;;;;;5041780;28;20469;-80
2022/05/15 03:36:12;;;;;;;8.40;5.47;;;12.10;99.90;;;;;;5041270;28;20466;-80
2022/05/15 03:38:41;;;;;;;4.93;4.63;;;12.00;99.90;;;;;;5041897;28;21032;-81
2022/05/15 03:41:08;;;;;;;5.20;4.80;;;12.00;99.90;;;;;;5040922;28;20961;-81
2022/05/15 03:43:36;;;;;;;4.67;4.33;;;12.10;99.90;;;;;;5041245;28;20852;-81
2022/05/15 03:46:03;;;;;;;4.73;4.37;;;12.00;99.90;;;;;;5041647;28;20464;-81
2022/05/15 03:48:30;;;;;;;10.93;6.33;;;12.10;99.90;;;;;;5041211;28;20819;-81
2022/05/15 03:50:57;;;;;;;4.53;4.10;;;12.10;99.90;;;;;;5040883;28;20961;-80
2022/05/15 03:53:24;;;;;;;5.30;4.90;;;12.00;99.90;;;;;;5040740;28;20469;-81
2022/05/15 03:55:55;;;;;;;3.87;3.53;;;12.00;99.90;;;;;;5041071;28;20444;-81
2022/05/15 03:58:22;;;;;;;4.80;4.50;;;12.00;99.90;;;;;;5040967;28;20491;-81
2022/05/15 04:00:49;;;;;;;4.27;3.87;;;12.00;99.90;;;;;;5042041;28;20483;-80
2022/05/15 04:03:15;;;;;;;5.10;4.63;;;12.00;99.90;;;;;;5042709;28;20469;-81
2022/05/15 04:05:42;;;;;;;4.60;4.20;;;12.00;99.90;;;;;;5041585;28;20449;-81
2022/05/15 04:08:10;;;;;;;4.50;4.10;;;12.00;99.90;;;;;;5041265;28;20463;-80
2022/05/15 04:10:37;;;;;;;3.77;3.47;;;12.00;99.90;;;;;;5041334;28;20464;-81
2022/05/15 04:13:06;;;;;;;4.43;4.03;;;12.00;99.90;;;;;;5041070;28;20448;-81
2022/05/15 04:15:33;;;;;;;4.93;4.53;;;12.00;99.90;;;;;;5040984;28;20836;-81
2022/05/15 04:18:00;;;;;;;4.07;3.77;;;12.00;99.90;;;;;;5040725;28;20495;-81
2022/05/15 04:20:28;;;;;;;6.73;4.20;;;12.00;99.90;;;;;;5040675;28;20452;-81
2022/05/15 04:22:55;;;;;;;4.63;4.27;;;12.00;99.90;;;;;;5041313;28;20472;-79
2022/05/15 04:25:23;;;;;;;6.83;4.10;;;12.10;99.90;;;;;;5041638;28;20844;-81
2022/05/15 04:27:50;;;;;;;5.60;3.67;;;12.10;99.90;;;;;;5041074;28;20449;-81
2022/05/15 04:30:21;;;;;;;4.30;3.90;;;12.10;99.90;;;;;;5040738;28;20449;-81
2022/05/15 04:32:48;;;;;;;3.83;3.57;;;12.20;99.90;;;;;;5040396;28;20473;-81
2022/05/15 04:35:15;;;;;;;4.87;4.47;;;12.20;99.90;;;;;;5041012;28;20463;-81
2022/05/15 04:37:41;;;;;;;4.10;3.80;;;12.20;99.90;;;;;;5040389;28;20862;-84
2022/05/15 04:40:10;;;;;;;5.20;4.80;;;12.20;99.90;;;;;;5039985;28;20457;-84
2022/05/15 04:42:37;;;;;;;3.40;3.10;;;12.30;99.90;;;;;;5040109;28;20453;-84
2022/05/15 04:45:04;;;;;;;4.47;4.07;;;12.30;99.90;;;;;;5050643;28;20429;-81
2022/05/15 04:47:32;;;;;;;3.50;3.30;;;12.40;99.90;;;;;;5056879;28;20429;-83
2022/05/15 04:49:59;;;;;;;4.93;3.77;;;12.40;99.90;;;;;;5049619;28;20453;-84
2022/05/15 04:52:26;;;;;;;7.10;3.63;;;12.50;99.90;;;;;;5042301;28;20445;-83
2022/05/15 04:54:53;;;;;;;4.40;4.00;;;12.50;99.90;;;;;;5043223;28;20557;-84
2022/05/15 04:57:19;;;;;;;4.63;4.07;;;12.60;99.90;;;;;;5053187;28;20485;-82
2022/05/15 04:59:46;;;;;;;4.40;4.10;;;12.60;99.90;;;;;;5054085;28;20457;-82
2022/05/15 05:02:13;;;;;;;4.50;3.63;;;12.70;99.90;;;;;;5044734;28;20453;-84
2022/05/15 05:04:41;;;;;;;4.37;4.00;;;12.70;99.90;;;;;;5045577;28;20506;-84
2022/05/15 05:07:08;;;;;;;3.77;3.47;;;12.80;99.90;;;;;;5053425;28;20448;-83
2022/05/15 05:09:35;;;;;;;4.47;3.50;;;12.90;99.90;;;;;;5056248;28;20477;-82
2022/05/15 05:12:02;;;;;;;4.07;3.77;;;12.90;99.90;;;;;;5054674;28;20470;-83
2022/05/15 05:14:28;;;;;;;5.77;4.00;;;13.00;99.90;;;;;;5054486;28;20473;-79
2022/05/15 05:16:55;;;;;;;5.10;4.70;;;13.10;99.90;;;;;;5041954;28;20478;-81
2022/05/15 05:19:22;;;;;;;4.23;3.93;;;13.10;99.90;;;;;;5040659;28;20448;-81
2022/05/15 05:21:50;;;;;;;3.90;3.60;;;13.20;99.90;;;;;;5039880;28;20441;-81
2022/05/15 05:24:17;;;;;;;4.67;4.27;;;13.20;99.90;;;;;;5040165;28;20473;-81
2022/05/15 05:26:43;;;;;;;5.10;4.20;;;13.30;99.90;;;;;;5039879;28;20445;-81
2022/05/15 05:29:10;;;;;;;4.87;4.47;;;13.40;99.90;;;;;;5040042;28;20452;-81
2022/05/15 05:31:37;;;;;;;5.10;4.80;;;13.40;99.90;;;;;;5039572;28;20453;-80
2022/05/15 05:34:04;;;;;;;5.07;4.57;;;13.50;99.90;;;;;;5040061;28;20485;-81
2022/05/15 05:36:30;;;;;;;5.37;4.77;;;13.70;99.90;;;;;;5039921;28;20819;-81
2022/05/15 05:38:59;;;;;;;5.60;3.93;;;13.80;99.90;;;;;;5040249;28;20523;-80
2022/05/15 05:41:27;;;;;;;6.73;3.47;;;13.90;99.90;;;;;;5039036;28;20457;-81
2022/05/15 05:43:53;;;;;;;4.13;3.37;;;14.10;99.90;;;;;;5039403;28;20528;-80
2022/05/15 05:46:21;;;;;;;3.40;3.10;;;14.10;99.90;;;;;;5040193;28;20453;-81
2022/05/15 05:48:48;;;;;;;4.27;3.97;;;14.30;99.90;;;;;;5040413;28;20452;-81
2022/05/15 05:51:16;;;;;;;4.53;4.10;;;14.40;99.90;;;;;;5039633;28;20466;-81
2022/05/15 05:53:43;;;;;;;2.77;2.50;;;14.50;99.90;;;;;;5039935;28;20482;-81
2022/05/15 05:56:11;;;;;;;5.10;4.57;;;14.60;99.90;;;;;;5039757;28;20446;-81
2022/05/15 05:58:38;;;;;;;4.53;4.20;;;14.70;99.90;;;;;;5039464;28;20496;-81
2022/05/15 06:01:05;;;;;;;4.67;4.30;;;14.80;99.90;;;;;;5039036;28;20937;-81
2022/05/15 06:06:17;;;;;;;4.17;3.20;;;15.00;99.90;;;;;;5039463;28;20435;-81
2022/05/15 06:08:44;;;;;;;3.70;3.40;;;15.10;99.90;;;;;;5039671;28;20451;-81
2022/05/15 06:11:13;;;;;;;5.30;3.63;;;15.20;99.90;;;;;;5039403;28;20461;-81
2022/05/15 06:13:40;;;;;;;3.60;3.30;;;15.30;99.90;;;;;;5039628;28;20466;-82
2022/05/15 06:16:07;;;;;;;3.60;3.30;;;15.40;99.90;;;;;;5039111;28;20449;-81
2022/05/15 06:18:34;;;;;;;3.33;3.00;;;15.50;99.90;;;;;;5038175;28;20509;-81
2022/05/15 06:21:01;;;;;;;3.57;3.27;;;15.60;99.90;;;;;;5038573;28;20477;-81
2022/05/15 06:23:28;;;;;;;4.13;3.50;;;15.70;99.90;;;;;;5039293;28;20470;-82
2022/05/15 06:25:54;;;;;;;5.70;3.50;;;15.70;99.90;;;;;;5038829;28;20451;-81
2022/05/15 06:28:22;;;;;;;6.87;4.47;;;15.80;99.90;;;;;;5039066;28;20445;-81
2022/05/15 06:30:49;;;;;;;3.63;3.30;;;15.90;99.90;;;;;;5039161;28;20449;-81
2022/05/15 06:33:16;;;;;;;3.87;2.70;;;16.00;99.90;;;;;;5040726;28;20462;-81
2022/05/15 06:35:44;;;;;;;4.20;3.73;;;16.00;99.80;;;;;;5041093;28;20465;-80
2022/05/15 06:38:10;;;;;;;4.00;3.00;;;16.10;99.30;;;;;;5039201;28;20562;-81
2022/05/15 06:40:37;;;;;;;2.83;2.63;;;16.20;99.10;;;;;;5039154;28;20860;-81
2022/05/15 06:43:04;;;;;;;3.40;3.20;;;16.20;99.20;;;;;;5038880;28;20479;-81
2022/05/15 06:45:32;;;;;;;3.57;3.27;;;16.30;99.20;;;;;;5038447;28;20970;-81
2022/05/15 06:47:59;;;;;;;3.40;3.10;;;16.40;98.90;;;;;;5038875;28;20451;-81
2022/05/15 06:50:26;;;;;;;3.10;2.90;;;16.50;98.30;;;;;;5038349;28;20451;-81
2022/05/15 06:52:53;;;;;;;3.40;3.10;;;16.60;98.20;;;;;;5038970;28;20475;-81
2022/05/15 06:55:22;;;;;;;3.60;3.13;;;16.70;98.80;;;;;;5041356;28;20451;-81
2022/05/15 06:57:50;;;;;;;3.47;3.17;;;16.80;99.10;;;;;;5037919;28;20546;-81
2022/05/15 07:00:19;;;;;;;4.13;3.73;;;16.90;98.40;;;;;;5037866;28;20460;-82
2022/05/15 07:02:48;;;;;;;2.90;2.70;;;17.00;98.20;;;;;;5038089;28;20983;-82
2022/05/15 07:05:17;;;;;;;2.37;2.17;;;17.00;98.30;;;;;;5038940;28;20822;-81
2022/05/15 07:07:44;;;;;;;2.90;2.60;;;17.10;98.00;;;;;;5038443;28;20457;-82
2022/05/15 07:10:11;;;;;;;2.97;2.70;;;17.20;97.30;;;;;;5037713;28;20456;-78
2022/05/15 07:12:38;;;;;;;2.50;2.40;;;17.30;97.50;;;;;;5038486;28;20456;-81
2022/05/15 07:15:07;;;;;;;3.97;3.57;;;17.50;97.10;;;;;;5038484;28;20456;-83
2022/05/15 07:17:34;;;;;;;4.10;3.77;;;17.60;96.80;;;;;;5038053;28;20491;-82
2022/05/15 07:20:03;;;;;;;4.87;3.23;;;17.70;97.10;;;;;;5038054;28;20505;-83
2022/05/15 07:22:30;;;;;;;6.10;2.73;;;17.80;96.50;;;;;;5037681;28;20447;-82
2022/05/15 07:24:57;;;;;;;2.90;2.70;;;18.00;96.10;;;;;;5037453;28;20445;-83
2022/05/15 07:27:24;;;;;;;9.43;3.47;;;18.10;95.50;;;;;;5038046;28;20455;-82
2022/05/15 07:29:50;;;;;;;4.37;4.07;;;18.30;95.90;;;;;;5040902;28;20950;-83
2022/05/15 07:32:17;;;;;;;4.10;2.87;;;18.30;95.50;;;;;;5041326;28;20459;-83
2022/05/15 07:34:44;;;;;;;2.63;2.43;;;18.40;94.40;;;;;;5042293;28;20981;-81
2022/05/15 07:37:12;;;;;;;3.90;3.27;;;18.60;95.00;;;;;;5041575;28;20458;-82
2022/05/15 07:39:39;;;;;;;2.87;2.60;;;18.60;94.40;;;;;;5041476;28;20459;-83
2022/05/15 07:42:07;;;;;;;3.60;2.10;;;18.80;94.20;;;;;;5040812;28;20462;-83
2022/05/15 07:44:34;;;;;;;2.93;2.73;;;18.80;94.70;;;;;;5041342;28;20461;-83
2022/05/15 07:47:01;;;;;;;2.80;2.60;;;18.90;94.50;;;;;;5041637;28;20552;-82
2022/05/15 07:49:27;;;;;;;5.37;3.70;;;19.00;94.70;;;;;;5040152;28;20456;-83
2022/05/15 07:51:54;;;;;;;4.50;2.87;;;19.10;93.70;;;;;;5040102;28;20686;-83
2022/05/15 07:54:22;;;;;;;2.33;2.13;;;19.20;93.40;;;;;;5039693;28;20482;-82
2022/05/15 07:56:49;;;;;;;2.50;2.30;;;19.20;93.80;;;;;;5040376;28;20958;-82
2022/05/15 07:59:16;;;;;;;2.40;2.20;;;19.40;93.30;;;;;;5040102;28;20487;-83
2022/05/15 08:01:43;;;;;;;2.27;2.17;;;19.50;92.30;;;;;;5039794;28;21047;-83
2022/05/15 08:04:11;;;;;;;3.90;2.37;;;19.60;92.10;;;;;;5039659;28;20469;-83
2022/05/15 08:09:24;;;;;;;4.63;2.87;;;19.90;92.30;;;;;;5040386;28;20428;-83
2022/05/15 08:11:50;;;;;;;2.30;2.10;;;20.00;91.30;;;;;;5039884;28;20450;-83
2022/05/15 08:14:18;;;;;;;2.97;2.03;;;20.10;91.70;;;;;;5040311;28;20480;-82
2022/05/15 08:16:45;;;;;;;3.57;2.50;;;20.20;90.90;;;;;;5040628;28;20445;-83
2022/05/15 08:24:42;;;;;;;2.53;2.37;;;20.60;90.80;;;;;;5040786;28;20496;-83
2022/05/15 08:27:10;;;;;;;2.73;2.50;;;20.70;91.20;;;;;;5040990;28;20475;-83
2022/05/15 08:29:37;;;;;;;4.00;3.10;;;20.80;91.40;;;;;;5040227;28;20451;-83
2022/05/15 08:32:05;;;;;;;2.77;2.57;;;20.80;91.20;;;;;;5039811;28;20522;-83
2022/05/15 08:34:31;;;;;;;2.40;2.20;;;20.80;90.80;;;;;;5053726;28;20477;-81
2022/05/15 08:36:58;;;;;;;3.00;2.30;;;20.90;89.20;;;;;;5054864;28;20437;-82
2022/05/15 08:39:25;;;;;;;2.97;2.40;;;21.00;88.10;;;;;;5040962;28;20489;-83
2022/05/15 08:42:15;;;;;;;2.83;2.60;;;21.20;88.60;;;;;;5039916;28;20867;-83
2022/05/15 08:44:47;;;;;;;2.37;2.20;;;21.20;86.60;;;;;;5040678;28;20481;-83
2022/05/15 08:47:19;;;;;;;4.70;2.30;;;21.20;90.10;;;;;;5039480;28;20458;-83
2022/05/15 08:49:49;;;;;;;2.63;2.27;;;21.30;88.00;;;;;;5038952;28;20460;-83
2022/05/15 08:52:19;;;;;;;2.27;2.17;;;21.40;89.80;;;;;;5037987;28;20455;-81
2022/05/15 08:54:53;;;;;;;3.43;3.13;;;21.50;89.60;;;;;;5037779;28;20472;-83
2022/05/15 08:57:26;;;;;;;2.10;2.00;;;21.60;90.30;;;;;;5037843;28;20477;-83
2022/05/15 08:59:57;;;;;;;2.87;2.70;;;21.70;87.60;;;;;;5037793;28;20486;-83
2022/05/15 09:02:25;;;;;;;2.80;2.60;;;21.70;87.70;;;;;;5038087;28;20456;-83
2022/05/15 09:04:53;;;;;;;2.23;2.13;;;21.70;88.20;;;;;;5038040;28;20449;-83
2022/05/15 09:07:34;;;;;;;6.50;2.77;;;21.90;90.20;;;;;;5037231;28;20453;-83
2022/05/15 09:10:16;;;;;;;3.60;2.17;;;21.90;87.80;;;;;;5036833;28;20450;-83
2022/05/15 09:12:51;;;;;;;3.13;2.60;;;21.90;87.50;;;;;;5038024;28;20483;-81
2022/05/15 09:15:21;;;;;;;2.53;2.13;;;22.00;87.70;;;;;;5049254;28;20451;-83
2022/05/15 09:17:57;;;;;;;2.60;2.40;;;22.10;87.10;;;;;;5049138;28;20451;-82
2022/05/15 09:20:38;;;;;;;2.70;2.50;;;22.10;86.70;;;;;;5039466;28;20451;-83
2022/05/15 09:23:15;;;;;;;2.70;2.30;;;22.20;84.90;;;;;;5037412;28;20474;-83
2022/05/15 09:25:41;;;;;;;2.63;2.43;;;22.30;87.30;;;;;;5053345;28;20512;-82
2022/05/15 09:28:12;;;;;;;4.47;2.17;;;22.40;84.30;;;;;;5053920;28;20930;-82
2022/05/15 09:30:42;;;;;;;2.50;2.40;;;22.50;82.90;;;;;;5036266;28;20457;-83
2022/05/15 09:33:24;;;;;;;2.53;2.30;;;22.80;87.50;;;;;;5034908;28;20469;-83
2022/05/15 09:35:51;;;;;;;2.30;2.10;;;22.90;86.20;;;;;;5051774;28;20445;-82
2022/05/15 09:38:29;;;;;;;2.03;1.93;;;23.20;80.60;;;;;;5054362;28;20480;-80
2022/05/15 09:43:55;;;;;;;2.80;2.60;;;23.40;82.60;;;;;;5034986;28;21013;-82
2022/05/15 09:46:25;;;;;;;2.77;2.43;;;23.60;75.90;;;;;;5034869;28;20449;-82
2022/05/15 09:48:56;;;;;;;2.37;2.20;;;23.70;80.20;;;;;;5034551;28;20496;-82
2022/05/15 09:51:35;;;;;;;8.73;3.10;;;23.80;80.10;;;;;;5033553;28;20453;-82
2022/05/15 09:54:02;;;;;;;2.73;2.50;;;23.90;79.10;;;;;;5033691;28;20469;-83
2022/05/15 09:56:32;;;;;;;2.53;2.33;;;23.80;74.60;;;;;;5033901;28;20460;-83
2022/05/15 09:59:09;;;;;;;4.67;2.60;;;24.00;75.00;;;;;;5033007;28;20997;-83
2022/05/15 10:01:40;;;;;;;4.53;2.43;;;24.10;77.80;;;;;;5032920;28;20461;-82
2022/05/15 10:04:19;;;;;;;2.43;2.23;;;24.40;78.30;;;;;;5033246;28;20508;-82
2022/05/15 10:06:51;;;;;;;2.73;2.53;;;24.60;77.80;;;;;;5033123;28;20512;-82
2022/05/15 10:09:26;;;;;;;2.60;2.30;;;24.80;78.90;;;;;;5032967;28;20459;-83
2022/05/15 10:11:59;;;;;;;3.97;2.60;;;25.00;73.90;;;;;;5032694;28;20459;-82
2022/05/15 10:14:34;;;;;;;2.47;2.27;;;25.20;76.40;;;;;;5033253;28;20986;-82
2022/05/15 10:17:03;;;;;;;3.77;3.43;;;25.30;74.00;;;;;;5032837;28;20455;-83
2022/05/15 10:19:35;;;;;;;2.60;2.13;;;25.40;71.90;;;;;;5033448;28;20488;-82
2022/05/15 10:22:11;;;;;;;3.30;3.00;;;25.50;73.00;;;;;;5032819;28;20454;-82
2022/05/15 10:24:44;;;;;;;2.40;2.30;;;25.60;71.10;;;;;;5033389;28;20506;-83
2022/05/15 10:27:15;;;;;;;2.30;2.20;;;25.70;67.80;;;;;;5032790;28;20460;-82
2022/05/15 10:29:49;;;;;;;2.80;2.20;;;25.80;68.30;;;;;;5032788;28;20451;-83
2022/05/15 10:32:20;;;;;;;2.47;2.27;;;26.00;69.10;;;;;;5032329;28;20464;-83
2022/05/15 10:34:47;;;;;;;3.43;2.40;;;26.00;66.10;;;;;;5032584;28;20807;-83
2022/05/15 10:37:30;;;;;;;2.57;2.40;;;26.20;65.30;;;;;;5032169;28;20497;-83
2022/05/15 10:40:09;;;;;;;2.60;2.40;;;26.40;68.40;;;;;;5032303;28;20491;-82
2022/05/15 10:42:48;;;;;;;2.83;2.63;;;26.60;67.00;;;;;;5032184;28;20475;-83
2022/05/15 10:45:22;;;;;;;2.83;2.63;;;26.80;61.00;;;;;;5032367;28;20456;-83
2022/05/15 10:48:05;;;;;;;2.70;2.50;;;27.00;62.80;;;;;;5032488;28;20736;-83
2022/05/15 10:50:44;;;;;;;2.20;2.00;;;27.20;63.30;;;;;;5031892;28;20461;-83
2022/05/15 10:59:22;;;;;;;2.17;2.07;;;27.60;58.50;;;;;;5032099;28;20482;-83
2022/05/15 11:01:58;;;;;;;2.13;1.93;;;27.80;60.60;;;;;;5031898;28;20453;-82
2022/05/15 11:04:41;;;;;;;2.83;2.60;;;28.10;60.10;;;;;;5034826;28;20478;-83
2022/05/15 11:07:14;;;;;;;2.60;2.40;;;28.50;60.30;;;;;;5035875;28;20460;-83
2022/05/15 11:09:48;;;;;;;2.47;2.27;;;29.00;56.80;;;;;;5036076;28;20452;-83
2022/05/15 11:12:22;;;;;;;2.40;2.27;;;29.50;56.10;;;;;;5035832;28;20457;-83
2022/05/15 11:15:01;;;;;;;2.50;2.30;;;29.90;55.80;;;;;;5035535;28;20453;-83
2022/05/15 11:17:32;;;;;;;2.53;2.33;;;30.30;55.30;;;;;;5036686;28;20819;-86
2022/05/15 11:20:06;;;;;;;3.10;2.80;;;30.50;50.80;;;;;;5042727;28;20494;-83
2022/05/15 11:22:38;;;;;;;3.80;3.37;;;31.00;53.90;;;;;;5042217;28;20454;-83
2022/05/15 11:25:10;;;;;;;2.60;2.40;;;31.60;52.80;;;;;;5041539;28;20435;-83
2022/05/15 11:27:44;;;;;;;2.60;2.10;;;32.20;51.00;;;;;;5040384;28;20446;-83
2022/05/15 11:30:15;;;;;;;2.70;2.50;;;32.90;48.70;;;;;;5038649;28;20450;-86
2022/05/15 11:33:00;;;;;;;3.67;3.30;;;33.20;47.00;;;;;;5039093;28;20476;-84
2022/05/15 11:35:34;;;;;;;2.10;1.90;;;33.40;46.20;;;;;;5038642;28;20538;-83
2022/05/15 11:38:11;;;;;;;2.60;2.40;;;33.60;45.60;;;;;;5039832;28;20455;-84
2022/05/15 11:40:41;;;;;;;1.97;1.87;;;33.60;43.60;;;;;;5037968;28;20488;-85
2022/05/15 11:43:45;;;;;;;2.77;2.40;;;33.80;43.50;;;;;;5037839;28;20480;-83
2022/05/15 11:46:12;;;;;;;3.50;2.43;;;34.00;43.00;;;;;;5038259;28;20535;-83
2022/05/15 11:48:56;;;;;;;2.50;2.40;;;34.00;41.90;;;;;;5038191;28;20450;-83
2022/05/15 11:51:32;;;;;;;2.43;2.20;;;34.20;43.80;;;;;;5036816;28;20462;-85
2022/05/15 11:54:01;;;;;;;2.00;1.90;;;34.50;43.00;;;;;;5037384;28;20892;-84
2022/05/15 11:56:36;;;;;;;2.80;2.60;;;34.80;43.10;;;;;;5037226;28;20481;-84
2022/05/15 11:59:22;;;;;;;2.13;2.03;;;35.20;40.60;;;;;;5055247;28;20487;-84
2022/05/15 12:01:50;;;;;;;2.37;2.17;;;34.60;42.10;;;;;;5048292;28;20523;-83
2022/05/15 12:04:43;;;;;;;2.43;2.23;;;34.90;41.10;;;;;;5036956;28;20469;-85
2022/05/15 12:07:32;;;;;;;2.53;2.43;;;34.90;41.80;;;;;;5036403;28;20955;-83
2022/05/15 12:09:59;;;;;;;2.33;2.10;;;34.70;40.00;;;;;;5036262;28;20815;-84
2022/05/15 12:12:52;;;;;;;2.20;2.00;;;35.00;39.60;;;;;;5035225;28;20453;-84
2022/05/15 12:15:34;;;;;;;2.63;2.53;;;35.40;39.80;;;;;;5034484;28;20468;-82
2022/05/15 12:18:11;;;;;;;3.67;2.37;;;35.80;39.10;;;;;;5036756;28;20745;-82
2022/05/15 12:20:47;;;;;;;4.10;2.43;;;36.10;38.00;;;;;;5034746;28;20485;-82
2022/05/15 12:23:18;;;;;;;2.73;2.53;;;36.60;38.90;;;;;;5034524;28;20468;-84
2022/05/15 12:25:56;;;;;;;2.50;2.30;;;37.10;38.00;;;;;;5034989;28;20453;-82
2022/05/15 12:28:52;;;;;;;2.50;2.13;;;37.30;36.20;;;;;;5034295;28;20460;-84
2022/05/15 12:31:28;;;;;;;3.00;2.50;;;37.60;37.20;;;;;;5033953;28;20446;-84
2022/05/15 12:33:56;;;;;;;2.80;2.27;;;38.10;35.80;;;;;;5034041;28;21041;-82
2022/05/15 12:36:33;;;;;;;1.97;1.87;;;37.90;33.40;;;;;;5034237;28;20481;-82
2022/05/15 12:39:02;;;;;;;2.60;2.40;;;37.10;34.90;;;;;;5034293;28;20492;-83
2022/05/15 12:41:35;;;;;;;3.40;2.57;;;37.50;37.10;;;;;;5033686;28;20461;-82
2022/05/15 12:44:03;;;;;;;2.13;2.00;;;37.90;34.60;;;;;;5034690;28;20848;-82
2022/05/15 12:46:34;;;;;;;3.00;2.80;;;37.20;33.90;;;;;;5034662;28;20449;-82
2022/05/15 12:49:01;;;;;;;2.60;2.40;;;36.90;34.10;;;;;;5034784;28;20446;-82
2022/05/15 12:51:32;;;;;;;2.03;1.93;;;36.80;36.00;;;;;;5035028;28;20456;-82
2022/05/15 12:54:00;;;;;;;2.53;2.33;;;37.00;34.40;;;;;;5034495;28;20477;-83
2022/05/15 12:56:30;;;;;;;2.20;2.03;;;37.20;33.30;;;;;;5034591;28;20456;-83
2022/05/15 12:58:59;;;;;;;2.53;2.43;;;37.10;33.30;;;;;;5035294;28;20445;-83
2022/05/15 13:01:30;;;;;;;3.03;2.43;;;37.40;33.20;;;;;;5035126;28;20445;-83
2022/05/15 13:03:59;;;;;;;3.30;2.90;;;37.60;33.30;;;;;;5034895;28;20480;-83
2022/05/15 13:06:37;;;;;;;2.57;2.33;;;37.30;32.80;;;;;;5034145;28;20455;-83
2022/05/15 13:09:06;;;;;;;2.50;2.40;;;37.30;33.10;;;;;;5033625;28;20449;-83
2022/05/15 13:11:41;;;;;;;2.70;2.00;;;37.70;34.70;;;;;;5033801;28;20456;-84
2022/05/15 13:14:14;;;;;;;2.33;2.13;;;37.90;33.50;;;;;;5033661;28;20477;-83
2022/05/15 13:16:46;;;;;;;4.10;2.50;;;38.40;32.60;;;;;;5033519;28;20457;-84
2022/05/15 13:19:14;;;;;;;4.77;2.63;;;38.70;33.70;;;;;;5033277;28;20481;-83
2022/05/15 13:21:47;;;;;;;2.63;2.50;;;39.50;33.10;;;;;;5032988;28;20499;-83
2022/05/15 13:24:15;;;;;;;2.83;2.63;;;39.70;31.20;;;;;;5034484;28;20469;-83
2022/05/15 13:26:45;;;;;;;1.60;1.50;;;39.60;29.80;;;;;;5033581;28;20460;-83
2022/05/15 13:29:15;;;;;;;2.43;2.33;;;39.90;30.50;;;;;;5033537;28;20457;-83
2022/05/15 13:31:42;;;;;;;2.30;2.10;;;40.10;32.00;;;;;;5033965;28;21020;-82
2022/05/15 13:34:13;;;;;;;2.73;2.53;;;40.10;30.00;;;;;;5032372;28;20519;-83
2022/05/15 13:36:51;;;;;;;2.60;2.40;;;40.70;30.70;;;;;;5034149;28;20453;-83
2022/05/15 13:44:55;;;;;;;3.20;2.37;;;41.50;29.30;;;;;;5035661;28;20445;-84
2022/05/15 13:47:23;;;;;;;5.97;2.97;;;41.50;28.90;;;;;;5036758;28;20457;-82